Time;durP1;ratioP1;P1;durP2;ratioP2;P2;SDS_P1;SDS_P2;PMS_P1;PMS_P2;Temp;Humidity;BMP_temperature;BMP_pressure;BME280_temperature;BME280_humidity;BME280_pressure;Samples;Min_cycle;Max_cycle;Signal;HPM_P1;HPM_P2
2021/08/19 00:01:17;;;;;;;2.75;1.30;;;;;;;17.25;80.98;100506.50;20736318;28;20049;-70
2021/08/19 00:11:19;;;;;;;4.57;1.75;;;;;;;17.22;80.32;100501.38;20735977;28;20050;-70
2021/08/19 00:21:21;;;;;;;3.53;1.60;;;;;;;17.17;81.11;100489.19;20735978;28;20096;-70
2021/08/19 00:31:23;;;;;;;3.50;1.58;;;;;;;17.16;80.94;100484.81;20735113;28;20061;-71
2021/08/19 00:41:25;;;;;;;4.82;2.05;;;;;;;17.05;81.28;100481.75;20742399;28;20136;-71
2021/08/19 00:51:35;;;;;;;4.03;1.65;;;;;;;17.05;81.39;100473.81;20749943;28;20050;-71
2021/08/19 01:01:37;;;;;;;2.20;1.33;;;;;;;16.99;81.78;100463.47;20748160;28;20050;-71
2021/08/19 01:11:41;;;;;;;5.35;2.00;;;;;;;17.00;81.86;100464.34;20747072;28;20632;-71
2021/08/19 01:21:44;;;;;;;3.97;2.00;;;;;;;16.99;81.91;100460.00;20746514;28;20092;-71
2021/08/19 01:31:57;;;;;;;5.35;2.15;;;;;;;17.01;81.22;100469.59;20745734;28;20062;-70
2021/08/19 01:41:59;;;;;;;4.82;2.08;;;;;;;16.91;82.23;100450.59;20745579;28;20050;-71
2021/08/19 01:52:04;;;;;;;3.70;2.00;;;;;;;16.98;81.97;100451.19;20744237;28;20100;-72
2021/08/19 02:02:06;;;;;;;4.55;2.20;;;;;;;17.10;81.03;100445.41;20742567;28;20053;-70
2021/08/19 02:12:08;;;;;;;6.03;2.72;;;;;;;17.01;81.63;100443.16;20743404;28;20046;-71
2021/08/19 02:22:10;;;;;;;5.40;2.30;;;;;;;16.91;82.53;100428.53;20742636;28;20053;-71
2021/08/19 02:32:11;;;;;;;4.97;2.55;;;;;;;16.92;81.76;100438.22;20741022;28;20443;-71
2021/08/19 02:42:13;;;;;;;5.88;2.85;;;;;;;16.82;82.09;100434.25;20740730;28;20053;-71
2021/08/19 02:52:15;;;;;;;6.78;2.85;;;;;;;16.75;82.47;100420.41;20740665;28;20056;-70
2021/08/19 03:02:17;;;;;;;5.20;2.70;;;;;;;16.79;82.15;100423.78;20738324;28;20050;-71
2021/08/19 03:12:19;;;;;;;6.10;2.78;;;;;;;16.77;82.45;100420.31;20738781;28;20134;-71
2021/08/19 03:22:21;;;;;;;6.32;2.92;;;;;;;16.80;81.65;100417.56;20738577;28;20488;-71
2021/08/19 03:32:23;;;;;;;4.82;2.80;;;;;;;16.74;82.13;100420.47;20738012;28;20484;-71
2021/08/19 03:42:24;;;;;;;7.68;3.28;;;;;;;16.80;81.87;100429.00;20737984;28;20057;-71
2021/08/19 03:52:26;;;;;;;6.97;2.60;;;;;;;16.76;82.48;100427.41;20737502;28;20057;-72
2021/08/19 04:02:28;;;;;;;5.00;2.60;;;;;;;16.77;81.62;100446.75;20736497;28;20058;-70
2021/08/19 04:12:30;;;;;;;5.57;3.30;;;;;;;16.70;81.89;100440.84;20720569;28;20082;-70
2021/08/19 04:22:32;;;;;;;5.70;2.92;;;;;;;16.76;81.73;100439.75;20751828;28;20037;-70
2021/08/19 04:32:34;;;;;;;4.70;2.83;;;;;;;16.75;81.25;100432.75;20750307;28;20054;-71
2021/08/19 04:42:36;;;;;;;6.07;3.05;;;;;;;16.71;81.71;100439.06;20750598;28;20629;-70
2021/08/19 04:52:37;;;;;;;7.82;3.10;;;;;;;16.74;82.16;100441.63;20749893;28;20444;-71
2021/08/19 05:02:39;;;;;;;5.40;3.20;;;;;;;16.73;82.40;100448.69;20748938;28;20100;-70
2021/08/19 05:12:42;;;;;;;9.35;3.85;;;;;;;16.87;82.12;100453.44;20747574;28;20046;-70
2021/08/19 05:22:44;;;;;;;5.80;3.33;;;;;;;16.80;82.73;100467.81;20747268;28;20049;-70
2021/08/19 05:32:46;;;;;;;7.15;3.72;;;;;;;16.68;83.16;100458.56;20745161;28;20050;-70
2021/08/19 05:42:48;;;;;;;5.13;3.17;;;;;;;16.84;83.70;100469.41;20745238;28;20045;-70
2021/08/19 05:52:51;;;;;;;5.35;3.40;;;;;;;16.99;82.80;100470.56;20744093;28;20078;-70
2021/08/19 06:02:53;;;;;;;7.15;4.03;;;;;;;17.22;81.39;100474.91;20743342;28;20073;-70
2021/08/19 06:12:56;;;;;;;6.60;3.67;;;;;;;17.34;81.91;100479.66;20744164;28;20080;-70
2021/08/19 06:22:59;;;;;;;8.73;4.13;;;;;;;17.51;80.55;100487.75;20743162;28;20447;-70
2021/08/19 06:33:03;;;;;;;6.25;3.50;;;;;;;17.37;80.54;100484.84;20742024;28;20554;-70
2021/08/19 06:43:05;;;;;;;7.22;3.50;;;;;;;17.39;80.82;100490.91;20741946;28;20049;-70
2021/08/19 06:53:07;;;;;;;6.40;3.78;;;;;;;17.48;80.77;100485.22;20741207;28;20054;-70
2021/08/19 07:03:12;;;;;;;11.25;4.05;;;;;;;17.62;79.47;100489.94;20738641;28;20617;-69
2021/08/19 07:13:15;;;;;;;6.47;3.22;;;;;;;17.72;79.83;100493.03;20682749;28;20145;-70
2021/08/19 07:23:17;;;;;;;8.90;4.07;;;;;;;17.88;79.34;100487.06;20659872;28;20420;-70
2021/08/19 07:33:19;;;;;;;7.97;3.58;;;;;;;18.45;76.72;100477.38;20658438;28;20047;-70
2021/08/19 07:43:21;;;;;;;6.40;3.60;;;;;;;18.74;74.36;100479.59;20795420;28;20107;-71
2021/08/19 07:53:24;;;;;;;8.45;4.20;;;;;;;18.88;73.59;100474.50;20831087;28;20119;-71
2021/08/19 08:03:26;;;;;;;6.22;3.17;;;;;;;19.13;73.04;100469.69;20832581;28;20045;-70
2021/08/19 08:13:28;;;;;;;6.97;3.35;;;;;;;18.95;72.74;100481.19;20808036;28;20539;-69
2021/08/19 08:23:33;;;;;;;4.97;2.85;;;;;;;19.44;71.72;100484.03;20753131;28;20061;-69
2021/08/19 08:33:35;;;;;;;6.22;3.67;;;;;;;19.76;69.75;100489.53;20751150;28;20057;-69
2021/08/19 08:43:38;;;;;;;7.25;3.30;;;;;;;19.88;70.20;100488.88;20751128;28;20108;-69
2021/08/19 08:53:41;;;;;;;5.53;2.88;;;;;;;20.17;67.79;100490.84;20746339;28;20054;-70
2021/08/19 09:03:57;;;;;;;6.47;2.00;;;;;;;19.99;66.86;100492.69;20751287;28;20053;-70
2021/08/19 09:14:13;;;;;;;4.95;2.40;;;;;;;19.80;68.04;100507.03;20749399;28;20046;-70
2021/08/19 09:24:17;;;;;;;5.82;2.35;;;;;;;19.83;68.56;100512.19;20747114;28;20463;-70
2021/08/19 09:34:19;;;;;;;6.45;2.40;;;;;;;20.11;68.22;100496.47;20729048;28;20472;-70
2021/08/19 09:44:39;;;;;;;4.35;2.45;;;;;;;20.04;68.36;100489.78;20746074;28;20053;-70
2021/08/19 09:54:46;;;;;;;5.50;3.00;;;;;;;20.74;65.26;100466.44;20745021;28;20092;-70
2021/08/19 10:04:48;;;;;;;5.78;2.55;;;;;;;21.09;63.98;100475.09;20744069;28;20096;-70
2021/08/19 10:14:50;;;;;;;4.57;2.50;;;;;;;21.68;61.81;100452.03;20703326;28;20109;-69
2021/08/19 10:24:54;;;;;;;3.33;2.00;;;;;;;21.48;62.12;100449.72;20645410;28;20081;-69
2021/08/19 10:35:10;;;;;;;4.00;2.08;;;;;;;21.73;61.93;100443.75;20661768;28;20077;-70
2021/08/19 10:45:27;;;;;;;4.68;2.42;;;;;;;21.77;61.08;100445.28;20661845;28;20549;-70
2021/08/19 10:55:38;;;;;;;3.95;2.10;;;;;;;22.03;58.78;100435.66;20660140;28;20053;-71
2021/08/19 11:05:43;;;;;;;4.00;2.00;;;;;;;22.12;59.50;100443.13;20659080;28;20046;-71
2021/08/19 11:15:48;;;;;;;3.70;2.00;;;;;;;22.44;59.04;100433.06;20705107;28;20045;-71
2021/08/19 11:25:50;;;;;;;4.78;1.58;;;;;;;22.71;56.98;100432.25;20738198;28;20104;-71
2021/08/19 11:35:54;;;;;;;3.80;1.52;;;;;;;22.63;56.81;100427.41;20738317;28;20050;-71
2021/08/19 11:46:07;;;;;;;;;;;;;;;23.21;55.50;100431.56;20738777;28;20042;-71
2021/08/19 11:56:12;;;;;;;3.05;1.38;;;;;;;23.41;56.61;100415.97;20738112;28;19925;-71
2021/08/19 12:06:18;;;;;;;2.75;1.45;;;;;;;22.65;56.97;100422.81;20737347;28;20467;-71
2021/08/19 12:16:22;;;;;;;3.42;1.38;;;;;;;22.62;58.31;100423.03;20686030;28;20085;-70
2021/08/19 12:26:24;;;;;;;2.83;1.55;;;;;;;22.96;56.47;100421.69;20654549;28;20115;-69
2021/08/19 12:36:30;;;;;;;3.55;1.70;;;;;;;22.85;56.60;100423.31;20660832;28;20070;-69
2021/08/19 12:46:36;;;;;;;3.85;1.92;;;;;;;21.79;61.50;100427.38;20668487;28;20537;-69
2021/08/19 12:56:38;;;;;;;4.07;1.67;;;;;;;21.45;62.01;100429.44;20669697;28;20051;-69
2021/08/19 13:06:40;;;;;;;3.45;1.60;;;;;;;22.50;58.93;100419.31;20667348;28;20096;-69
2021/08/19 13:16:42;;;;;;;3.45;1.60;;;;;;;22.87;56.56;100410.72;20722222;28;20058;-69
2021/08/19 13:26:44;;;;;;;2.72;1.52;;;;;;;22.15;58.52;100408.28;20747871;28;20473;-69
2021/08/19 13:36:46;;;;;;;5.43;2.22;;;;;;;21.51;67.06;100425.56;20747245;28;20464;-68
2021/08/19 13:46:48;;;;;;;3.45;1.90;;;;;;;21.41;66.66;100414.59;20745803;28;20046;-69
2021/08/19 13:56:55;;;;;;;3.97;2.15;;;;;;;21.45;67.35;100408.13;20746056;28;20078;-69
2021/08/19 14:06:57;;;;;;;3.53;1.83;;;;;;;22.05;65.39;100401.78;20743960;28;20045;-68
2021/08/19 14:16:59;;;;;;;4.70;2.22;;;;;;;22.61;61.69;100383.94;20688033;28;20050;-68
2021/08/19 14:27:03;;;;;;;4.22;1.80;;;;;;;22.96;58.68;100380.78;20662612;28;20046;-69
2021/08/19 14:37:10;;;;;;;3.92;2.03;;;;;;;23.06;58.12;100376.50;20660870;28;20093;-69
2021/08/19 14:47:12;;;;;;;3.15;1.77;;;;;;;22.69;57.66;100375.44;20659643;28;20057;-69
2021/08/19 14:57:13;;;;;;;3.40;1.52;;;;;;;22.61;57.49;100362.56;20659551;28;20471;-69
2021/08/19 15:07:15;;;;;;;3.40;1.70;;;;;;;22.94;56.95;100350.63;20659491;28;20050;-70
2021/08/19 15:17:16;;;;;;;4.53;1.63;;;;;;;22.82;56.14;100346.09;20659953;28;20104;-69
2021/08/19 15:27:20;;;;;;;3.22;1.52;;;;;;;22.75;57.55;100354.50;20659857;28;20493;-69
2021/08/19 15:37:22;;;;;;;4.30;2.10;;;;;;;22.79;55.12;100349.81;20658450;28;20419;-69
2021/08/19 15:47:25;;;;;;;3.75;1.77;;;;;;;22.65;56.74;100345.41;20659437;28;20042;-69
2021/08/19 15:57:29;;;;;;;4.18;2.15;;;;;;;22.81;55.73;100336.41;20641666;28;20097;-70
2021/08/19 16:07:31;;;;;;;;;;;;;;;22.68;57.24;100342.53;20664851;28;20483;-69
2021/08/19 16:17:33;;;;;;;4.22;2.30;;;;;;;22.65;57.74;100344.56;20674298;28;19926;-69
2021/08/19 16:27:35;;;;;;;4.05;1.63;;;;;;;22.43;57.59;100342.47;20674153;28;20054;-69
2021/08/19 16:37:38;;;;;;;3.88;1.65;;;;;;;22.40;58.64;100348.00;20655318;28;20608;-70
2021/08/19 16:47:40;;;;;;;4.32;1.67;;;;;;;22.01;58.21;100336.25;20672208;28;20493;-69
2021/08/19 16:57:41;;;;;;;6.13;1.70;;;;;;;22.10;59.63;100334.81;20671736;28;20046;-70
2021/08/19 17:07:43;;;;;;;2.92;1.45;;;;;;;22.04;60.21;100341.41;20670254;28;20047;-70
2021/08/19 17:17:45;;;;;;;2.88;1.60;;;;;;;;;;20670851;28;20042;-70
2021/08/19 17:27:46;;;;;;;3.95;1.70;;;;;;;21.75;62.51;100336.13;20668556;28;20043;-70
2021/08/19 17:37:48;;;;;;;4.45;1.45;;;;;;;21.59;63.38;100330.03;20668544;28;20554;-70
2021/08/19 17:47:50;;;;;;;4.78;1.20;;;;;;;21.39;63.85;100330.41;20668819;28;20517;-70
2021/08/19 17:57:53;;;;;;;4.00;1.92;;;;;;;21.23;64.56;100327.81;20667949;28;20058;-70
2021/08/19 18:07:55;;;;;;;4.27;1.50;;;;;;;21.06;65.11;100320.84;20664871;28;20046;-69
2021/08/19 18:17:57;;;;;;;3.60;1.58;;;;;;;20.88;65.82;100328.13;20666428;28;20069;-71
2021/08/19 18:27:59;;;;;;;5.57;1.90;;;;;;;20.75;66.89;100330.66;20665777;28;20046;-70
2021/08/19 18:38:01;;;;;;;3.65;1.50;;;;;;;20.62;66.44;100342.97;20662118;28;20043;-69
2021/08/19 18:48:04;;;;;;;3.97;1.77;;;;;;;20.49;67.92;100347.28;20663403;28;20054;-69
2021/08/19 18:58:07;;;;;;;4.70;2.38;;;;;;;20.41;67.72;100349.47;20661866;28;20054;-70
2021/08/19 19:08:08;;;;;;;4.82;2.42;;;;;;;20.30;67.63;100359.88;20659085;28;20069;-70
2021/08/19 19:18:10;;;;;;;3.05;1.60;;;;;;;20.17;68.08;100373.00;20723821;28;20100;-70
2021/08/19 19:28:12;;;;;;;3.65;1.83;;;;;;;19.98;70.15;100378.50;20738952;28;20081;-70
2021/08/19 19:38:14;;;;;;;4.10;1.80;;;;;;;19.90;70.98;100378.06;20737601;28;20097;-70
2021/08/19 19:48:16;;;;;;;4.82;2.38;;;;;;;19.86;70.91;100379.16;20736871;28;20467;-70
2021/08/19 19:58:17;;;;;;;6.55;2.28;;;;;;;19.72;71.96;100394.03;20737235;28;20050;-69
2021/08/19 20:08:19;;;;;;;5.18;2.10;;;;;;;19.64;71.72;100385.66;20736325;28;20050;-69
2021/08/19 20:18:21;;;;;;;5.43;2.20;;;;;;;19.53;72.24;100395.06;20668808;28;20050;-70
2021/08/19 20:28:23;;;;;;;4.57;2.17;;;;;;;19.48;72.18;100397.97;20655585;28;20050;-69
2021/08/19 20:38:24;;;;;;;5.22;2.40;;;;;;;19.49;72.67;100402.34;20654526;28;20104;-70
2021/08/19 20:48:26;;;;;;;8.10;2.42;;;;;;;19.49;72.85;100397.03;20654595;28;20046;-70
2021/08/19 20:58:28;;;;;;;5.85;2.78;;;;;;;19.46;72.94;100402.53;20661389;28;20054;-70
2021/08/19 21:08:30;;;;;;;6.82;2.80;;;;;;;19.43;73.45;100403.53;20667791;28;20523;-70
2021/08/19 21:18:32;;;;;;;5.78;2.70;;;;;;;19.41;73.64;100409.88;20735811;28;20050;-70
2021/08/19 21:28:33;;;;;;;4.68;2.58;;;;;;;19.38;73.52;100416.19;20747318;28;20606;-70
2021/08/19 21:38:35;;;;;;;5.05;2.85;;;;;;;19.33;73.67;100426.19;20744250;28;20049;-70
2021/08/19 21:48:37;;;;;;;4.43;2.45;;;;;;;19.26;74.67;100426.56;20744435;28;20050;-70
2021/08/19 21:58:39;;;;;;;4.85;2.40;;;;;;;19.18;74.23;100430.50;20744675;28;20120;-71
2021/08/19 22:08:40;;;;;;;5.13;2.53;;;;;;;18.99;75.73;100426.19;20743361;28;20558;-70
2021/08/19 22:18:42;;;;;;;5.65;2.22;;;;;;;18.93;76.48;100417.59;20743165;28;20058;-71
2021/08/19 22:28:44;;;;;;;6.75;2.72;;;;;;;18.90;76.26;100425.72;20742757;28;20057;-71
2021/08/19 22:38:46;;;;;;;5.70;2.78;;;;;;;18.92;76.55;100430.94;20741354;28;20393;-71
2021/08/19 22:48:48;;;;;;;5.65;2.60;;;;;;;18.79;76.97;100421.88;20723902;28;20416;-71
2021/08/19 22:58:49;;;;;;;5.30;2.78;;;;;;;18.83;77.10;100428.72;20737004;28;20081;-70
2021/08/19 23:08:51;;;;;;;4.93;2.50;;;;;;;18.82;76.76;100432.31;20739820;28;20488;-70
2021/08/19 23:18:53;;;;;;;5.82;2.90;;;;;;;18.81;77.03;100428.81;20740123;28;20096;-68
2021/08/19 23:28:55;;;;;;;6.82;2.72;;;;;;;18.78;77.10;100425.44;20737486;28;20121;-70
2021/08/19 23:38:57;;;;;;;5.07;2.63;;;;;;;18.76;77.39;100432.63;20736476;28;20100;-69
2021/08/19 23:48:59;;;;;;;7.75;2.83;;;;;;;18.37;79.30;100437.09;20737361;28;20045;-68
2021/08/19 23:59:01;;;;;;;6.47;2.85;;;;;;;18.35;79.81;100438.09;20736969;28;20484;-69
